📊 Raw Sensor Data
Showing records 48251 to 48275 of 85,097 total
| ID | Distance (ft) | Battery V | Battery A | Int Temp (°F) | Int Humid (%) | Ext Temp (°F) | Solar V | RSSI | SNR | Time Stamp |
|---|---|---|---|---|---|---|---|---|---|---|
| 36859 | -- | 4.02 | 0 | 64 | 38 | 63 | 5.10 | -79 | 8 | 04/04/2025 11:00 AM |
| 36858 | -- | 3.88 | 0 | 63 | 37 | 62 | 5.10 | -79 | 8 | 04/04/2025 10:45 AM |
| 36857 | -- | 3.88 | 0 | 62 | 37 | 62 | 5.10 | -75 | 9 | 04/04/2025 10:30 AM |
| 36856 | -- | 3.88 | 0 | 60 | 37 | 60 | 5.10 | -79 | 7 | 04/04/2025 10:15 AM |
| 36855 | -- | 3.88 | 0 | 58 | 37 | 59 | 5.10 | -77 | 8 | 04/04/2025 10:00 AM |
| 36854 | -- | 3.88 | 0 | 57 | 37 | 57 | 5.10 | -80 | 7 | 04/04/2025 09:45 AM |
| 36853 | -- | 3.88 | 0 | 55 | 37 | 56 | 5.10 | -76 | 8 | 04/04/2025 09:31 AM |
| 36852 | -- | 3.88 | 0 | 54 | 37 | 55 | 5.10 | -76 | 9 | 04/04/2025 09:15 AM |
| 36851 | -- | 3.88 | 0 | 52 | 37 | 54 | 5.10 | -77 | 9 | 04/04/2025 09:00 AM |
| 36850 | 15.1 | 3.87 | 0 | 51 | 37 | 52 | 5.10 | -76 | 8 | 04/04/2025 08:45 AM |
| 36849 | 15.1 | 3.86 | 0 | 49 | 37 | 51 | 5.10 | -78 | 7 | 04/04/2025 08:30 AM |
| 36848 | 15.1 | 4.02 | 0 | 47 | 37 | 50 | 5.10 | -77 | 8 | 04/04/2025 08:15 AM |
| 36847 | 15.0 | 3.86 | 0 | 45 | 37 | 48 | 5.10 | -77 | 8 | 04/04/2025 08:00 AM |
| 36846 | 15.1 | 3.88 | 0 | 43 | 38 | 47 | 5.10 | -77 | 8 | 04/04/2025 07:45 AM |
| 36845 | 15.0 | 3.96 | 26 | 41 | 39 | 45 | 4.50 | -78 | 8 | 04/04/2025 07:30 AM |
| 36844 | -- | 3.99 | 10 | 40 | 39 | 44 | 4.50 | -79 | 9 | 04/04/2025 07:15 AM |
| 36843 | 15.0 | 3.71 | 0 | 39 | 39 | 42 | 4.50 | -79 | 8 | 04/04/2025 07:00 AM |
| 36842 | -- | 3.67 | -7 | 38 | 40 | 41 | 2.70 | -79 | 9 | 04/04/2025 06:45 AM |
| 36841 | 15.0 | 3.70 | -5 | 38 | 39 | 41 | 0.70 | -78 | 8 | 04/04/2025 06:30 AM |
| 36840 | 15.0 | 3.72 | -34 | 38 | 40 | 40 | 0.00 | -79 | 7 | 04/04/2025 06:15 AM |
| 36839 | 15.0 | 3.89 | -5 | 38 | 39 | 40 | 0.00 | -78 | 8 | 04/04/2025 06:00 AM |
| 36838 | 15.0 | 3.89 | -5 | 38 | 39 | 41 | 0.00 | -78 | 8 | 04/04/2025 05:45 AM |
| 36837 | 15.0 | 3.71 | -5 | 38 | 40 | 40 | 0.00 | -79 | 8 | 04/04/2025 05:30 AM |
| 36836 | 15.1 | 3.71 | -5 | 38 | 40 | 40 | 0.00 | -79 | 7 | 04/04/2025 05:00 AM |
| 36835 | 15.0 | 3.72 | -5 | 38 | 40 | 40 | 0.00 | -79 | 8 | 04/04/2025 04:45 AM |